createdAt,value
2022-10-01T00:01:21.299Z,12.79
2022-10-01T00:04:31.843Z,12.76
2022-10-01T00:07:44.702Z,12.81
2022-10-01T00:10:53.330Z,12.76
2022-10-01T00:13:59.297Z,12.73
2022-10-01T00:17:08.344Z,12.72
2022-10-01T00:20:15.498Z,12.82
2022-10-01T00:23:24.571Z,12.63
2022-10-01T00:26:33.255Z,12.60
2022-10-01T00:29:42.397Z,12.64
2022-10-01T00:32:48.383Z,12.55
2022-10-01T00:35:58.023Z,12.53
2022-10-01T00:39:04.352Z,12.49
2022-10-01T00:42:24.332Z,12.49
2022-10-01T00:45:33.290Z,12.47
2022-10-01T00:48:50.761Z,12.47
2022-10-01T00:52:08.430Z,12.53
2022-10-01T00:55:20.583Z,12.55
2022-10-01T00:58:29.541Z,12.57
2022-10-01T01:01:39.681Z,12.61
2022-10-01T01:04:49.799Z,12.63
2022-10-01T01:08:00.202Z,12.67
2022-10-01T01:11:50.176Z,12.62
2022-10-01T01:15:20.330Z,12.61
2022-10-01T01:18:52.712Z,12.59
2022-10-01T01:22:06.162Z,12.58
2022-10-01T01:25:19.972Z,12.60
2022-10-01T01:28:41.007Z,12.61
2022-10-01T01:31:50.388Z,12.81
2022-10-01T01:35:02.411Z,12.76
2022-10-01T01:38:16.531Z,12.62
2022-10-01T01:41:27.116Z,12.51
2022-10-01T01:44:41.866Z,12.43
2022-10-01T01:47:50.096Z,12.40
2022-10-01T01:51:07.139Z,12.41
2022-10-01T01:54:15.510Z,12.43
2022-10-01T01:57:28.047Z,12.42
2022-10-01T02:00:38.229Z,12.43
2022-10-01T02:03:48.237Z,12.47
2022-10-01T02:07:16.811Z,12.51
2022-10-01T02:10:45.043Z,12.48
2022-10-01T02:14:33.752Z,12.49
2022-10-01T02:18:21.481Z,12.50
2022-10-01T02:21:54.957Z,12.49
2022-10-01T02:25:05.444Z,12.43
2022-10-01T02:28:19.676Z,12.39
2022-10-01T02:31:35.042Z,12.38
2022-10-01T02:34:43.611Z,12.34
2022-10-01T02:37:55.143Z,12.33
2022-10-01T02:41:06.083Z,12.39
2022-10-01T02:44:23.094Z,12.38
2022-10-01T02:47:38.722Z,12.38
2022-10-01T02:50:58.732Z,12.41
2022-10-01T02:54:17.542Z,12.36
2022-10-01T02:57:28.750Z,12.39
2022-10-01T03:00:36.144Z,12.38
2022-10-01T03:03:46.786Z,12.38
2022-10-01T03:06:52.750Z,12.39
2022-10-01T03:10:00.821Z,12.47
2022-10-01T03:13:08.789Z,12.42
2022-10-01T03:16:16.216Z,12.39
2022-10-01T03:19:25.300Z,12.42
2022-10-01T03:22:36.034Z,12.45
2022-10-01T03:25:44.354Z,12.43
2022-10-01T03:28:54.982Z,12.45
2022-10-01T03:32:04.808Z,12.52
2022-10-01T03:35:13.240Z,12.51
2022-10-01T03:38:21.973Z,12.49
2022-10-01T03:41:32.894Z,12.50
2022-10-01T03:44:41.414Z,12.55
2022-10-01T03:47:56.248Z,12.57
2022-10-01T03:51:02.665Z,12.61
2022-10-01T03:54:10.212Z,12.66
2022-10-01T03:57:17.661Z,12.59
2022-10-01T04:00:24.132Z,12.59
2022-10-01T04:03:31.241Z,12.61
2022-10-01T04:06:39.449Z,12.58
2022-10-01T04:09:49.561Z,12.59
2022-10-01T04:12:58.940Z,12.71
2022-10-01T04:16:13.681Z,12.74
2022-10-01T04:19:22.802Z,12.79
2022-10-01T04:22:31.618Z,12.75
2022-10-01T04:25:38.240Z,12.71
2022-10-01T04:28:48.981Z,12.71
2022-10-01T04:31:55.450Z,12.69
2022-10-01T04:35:02.089Z,12.67
2022-10-01T04:38:13.127Z,12.71
2022-10-01T04:41:22.609Z,12.64
2022-10-01T04:44:31.571Z,12.63
2022-10-01T04:47:49.268Z,12.62
2022-10-01T04:50:56.596Z,12.59
2022-10-01T04:54:04.390Z,12.75
2022-10-01T04:57:14.666Z,12.70
2022-10-01T05:00:26.864Z,12.71
2022-10-01T05:03:33.360Z,12.65
2022-10-01T05:06:43.389Z,12.76
2022-10-01T05:09:53.032Z,12.70
2022-10-01T05:13:02.899Z,12.67
2022-10-01T05:16:13.091Z,12.67
2022-10-01T05:19:20.037Z,12.67
2022-10-01T05:22:30.082Z,12.64
2022-10-01T05:25:37.180Z,12.60
2022-10-01T05:28:45.532Z,12.64
2022-10-01T05:31:51.934Z,12.66
2022-10-01T05:34:58.754Z,12.72
2022-10-01T05:38:07.458Z,12.76
2022-10-01T05:41:15.282Z,12.75
2022-10-01T05:44:22.731Z,12.75
2022-10-01T05:47:29.841Z,12.79
2022-10-01T05:50:45.077Z,12.78
2022-10-01T05:53:55.318Z,12.84
2022-10-01T05:57:03.106Z,12.85
2022-10-01T06:00:10.733Z,12.87
2022-10-01T06:03:18.261Z,12.91
2022-10-01T06:06:30.918Z,12.93
2022-10-01T06:09:38.370Z,12.85
2022-10-01T06:12:45.040Z,12.91
2022-10-01T06:15:55.347Z,12.88
2022-10-01T06:19:05.271Z,12.85
2022-10-01T06:22:12.965Z,12.89
2022-10-01T06:25:19.280Z,12.95
2022-10-01T06:28:28.091Z,13.10
2022-10-01T06:31:35.714Z,12.99
2022-10-01T06:34:43.705Z,13.04
2022-10-01T06:37:51.801Z,13.01
2022-10-01T06:41:02.311Z,13.02
2022-10-01T06:44:12.853Z,13.00
2022-10-01T06:47:19.336Z,13.02
2022-10-01T06:50:33.813Z,13.12
2022-10-01T06:53:42.286Z,13.19
2022-10-01T06:56:51.809Z,13.31
2022-10-01T06:59:58.968Z,13.43
2022-10-01T07:03:11.693Z,13.52
2022-10-01T07:06:18.616Z,13.55
2022-10-01T07:09:26.564Z,13.59
2022-10-01T07:12:34.801Z,13.68
2022-10-01T07:15:44.354Z,13.75
2022-10-01T07:18:53.023Z,13.82
2022-10-01T07:22:01.114Z,13.83
2022-10-01T07:25:10.210Z,13.91
2022-10-01T07:28:18.760Z,13.86
2022-10-01T07:31:24.731Z,13.85
2022-10-01T07:34:32.887Z,13.87
2022-10-01T07:37:38.974Z,13.98
2022-10-01T07:40:52.581Z,14.09
2022-10-01T07:43:57.592Z,14.39
2022-10-01T07:47:07.065Z,14.43
2022-10-01T07:50:15.469Z,14.52
2022-10-01T07:53:25.146Z,14.55
2022-10-01T07:56:33.097Z,14.57
2022-10-01T07:59:43.372Z,14.50
2022-10-01T08:02:51.340Z,14.44
2022-10-01T08:05:57.920Z,14.57
2022-10-01T08:09:08.069Z,14.76
2022-10-01T08:12:15.927Z,14.98
2022-10-01T08:15:22.077Z,15.03
2022-10-01T08:18:31.497Z,15.08
2022-10-01T08:21:39.127Z,15.15
2022-10-01T08:24:47.332Z,15.18
2022-10-01T08:27:55.935Z,15.17
2022-10-01T08:31:13.082Z,15.14
2022-10-01T08:34:19.307Z,15.21
2022-10-01T08:37:29.701Z,15.17
2022-10-01T08:40:44.054Z,15.20
2022-10-01T08:43:53.222Z,15.11
2022-10-01T08:47:09.217Z,15.10
2022-10-01T08:50:30.861Z,14.97
2022-10-01T08:53:56.246Z,15.05
2022-10-01T08:57:03.667Z,15.11
2022-10-01T09:00:14.976Z,15.17
2022-10-01T09:03:19.583Z,15.38
2022-10-01T09:06:27.859Z,15.43
2022-10-01T09:09:52.051Z,15.32
2022-10-01T09:13:26.977Z,15.29
2022-10-01T09:17:00.546Z,15.39
2022-10-01T09:20:28.329Z,15.53
2022-10-01T09:23:55.956Z,15.56
2022-10-01T09:27:05.865Z,15.62
2022-10-01T09:30:26.589Z,15.76
2022-10-01T09:33:43.626Z,15.82
2022-10-01T09:37:22.253Z,16.28
2022-10-01T09:40:35.512Z,16.55
2022-10-01T09:43:43.901Z,16.90
2022-10-01T09:46:52.766Z,17.89
2022-10-01T09:50:04.147Z,18.54
2022-10-01T09:53:21.961Z,19.28
2022-10-01T09:56:37.865Z,18.85
2022-10-01T09:59:54.511Z,18.85
2022-10-01T10:03:01.362Z,18.46
2022-10-01T10:06:08.355Z,18.28
2022-10-01T10:09:25.418Z,18.59
2022-10-01T10:12:36.701Z,19.12
2022-10-01T10:16:01.767Z,18.58
2022-10-01T10:19:34.730Z,18.53
2022-10-01T10:22:40.408Z,18.39
2022-10-01T10:25:55.317Z,18.55
2022-10-01T10:29:05.033Z,18.57
2022-10-01T10:32:29.922Z,18.81
2022-10-01T10:35:39.928Z,19.35
2022-10-01T10:38:54.375Z,19.62
2022-10-01T10:42:05.214Z,19.39
2022-10-01T10:45:18.324Z,20.39
2022-10-01T10:48:31.939Z,20.72
2022-10-01T10:51:47.153Z,20.67
2022-10-01T10:54:55.894Z,20.35
2022-10-01T10:58:16.604Z,21.89
2022-10-01T11:01:33.905Z,24.64
2022-10-01T11:04:48.065Z,27.79
2022-10-01T11:07:58.408Z,28.20
2022-10-01T11:11:28.377Z,30.72
2022-10-01T11:14:59.000Z,30.39
2022-10-01T11:18:17.586Z,31.17
2022-10-01T11:21:41.289Z,30.96
2022-10-01T11:25:08.549Z,29.45
2022-10-01T11:28:36.411Z,29.15
2022-10-01T11:31:51.125Z,29.99
2022-10-01T11:34:56.916Z,29.24
2022-10-01T11:38:25.430Z,28.90
2022-10-01T11:41:39.118Z,26.88
2022-10-01T11:45:00.962Z,28.10
2022-10-01T11:48:24.711Z,29.02
2022-10-01T11:51:46.878Z,29.46
2022-10-01T11:55:38.260Z,28.72
2022-10-01T11:59:03.037Z,30.10
2022-10-01T12:02:31.391Z,26.99
2022-10-01T12:05:39.653Z,29.57
2022-10-01T12:08:57.858Z,27.80
2022-10-01T12:12:16.229Z,25.29
2022-10-01T12:15:24.351Z,24.31
2022-10-01T12:18:45.837Z,23.37
2022-10-01T12:21:52.080Z,22.37
2022-10-01T12:24:58.308Z,21.62
2022-10-01T12:28:13.856Z,20.99
2022-10-01T12:31:31.648Z,21.50
2022-10-01T12:34:59.651Z,21.94
2022-10-01T12:38:35.751Z,22.38
2022-10-01T12:42:00.253Z,22.00
2022-10-01T12:45:39.489Z,21.52
2022-10-01T12:49:12.857Z,21.00
2022-10-01T12:52:20.845Z,20.91
2022-10-01T12:55:37.644Z,21.08
2022-10-01T12:58:56.835Z,21.82
2022-10-01T13:02:06.482Z,22.79
2022-10-01T13:05:13.905Z,23.35
2022-10-01T13:08:17.560Z,23.53
2022-10-01T13:11:44.617Z,22.76
2022-10-01T13:14:50.547Z,22.69
2022-10-01T13:18:18.691Z,22.36
2022-10-01T13:21:33.107Z,23.01
2022-10-01T13:24:49.921Z,22.91
2022-10-01T13:28:28.494Z,21.75
2022-10-01T13:31:40.445Z,20.82
2022-10-01T13:34:48.329Z,20.64
2022-10-01T13:37:56.330Z,20.35
2022-10-01T13:41:06.839Z,20.23
2022-10-01T13:44:27.247Z,19.66
2022-10-01T13:47:39.990Z,19.00
2022-10-01T13:51:00.371Z,18.61
2022-10-01T13:54:18.844Z,18.37
2022-10-01T13:57:36.738Z,17.94
2022-10-01T14:00:55.354Z,17.57
2022-10-01T14:04:16.018Z,17.90
2022-10-01T14:07:29.349Z,18.02
2022-10-01T14:11:02.422Z,17.98
2022-10-01T14:14:48.142Z,17.64
2022-10-01T14:18:00.400Z,18.36
2022-10-01T14:21:36.539Z,18.67
2022-10-01T14:25:04.671Z,18.10
2022-10-01T14:28:41.838Z,17.65
2022-10-01T14:31:57.369Z,17.37
2022-10-01T14:35:39.014Z,17.33
2022-10-01T14:38:46.932Z,17.13
2022-10-01T14:41:56.513Z,17.18
2022-10-01T14:45:03.232Z,17.27
2022-10-01T14:48:08.707Z,17.37
2022-10-01T14:51:29.426Z,17.44
2022-10-01T14:54:48.002Z,17.58
2022-10-01T14:57:59.563Z,17.23
2022-10-01T15:01:07.442Z,16.99
2022-10-01T15:04:23.047Z,17.06
2022-10-01T15:07:36.108Z,16.84
2022-10-01T15:10:53.117Z,16.73
2022-10-01T15:14:15.380Z,16.65
2022-10-01T15:17:25.669Z,16.66
2022-10-01T15:20:36.375Z,16.41
2022-10-01T15:23:46.201Z,16.19
2022-10-01T15:26:56.960Z,16.09
2022-10-01T15:30:02.885Z,16.17
2022-10-01T15:33:22.813Z,15.79
2022-10-01T15:36:30.711Z,15.65
2022-10-01T15:39:44.454Z,15.51
2022-10-01T15:43:23.451Z,15.51
2022-10-01T15:46:33.962Z,15.35
2022-10-01T15:49:38.975Z,15.28
2022-10-01T15:52:54.298Z,15.26
2022-10-01T15:56:09.918Z,15.17
2022-10-01T15:59:20.755Z,15.13
2022-10-01T16:02:30.666Z,15.17
2022-10-01T16:05:47.608Z,15.15
2022-10-01T16:09:06.563Z,15.11
2022-10-01T16:12:23.693Z,15.15
2022-10-01T16:15:30.552Z,15.10
2022-10-01T16:18:37.914Z,15.05
2022-10-01T16:21:45.396Z,15.00
2022-10-01T16:24:59.488Z,14.99
2022-10-01T16:28:20.110Z,14.92
2022-10-01T16:31:27.734Z,14.87
2022-10-01T16:34:36.943Z,14.82
2022-10-01T16:37:46.497Z,14.78
2022-10-01T16:40:55.269Z,14.73
2022-10-01T16:44:06.588Z,14.72
2022-10-01T16:47:14.407Z,14.72
2022-10-01T16:50:22.769Z,14.73
2022-10-01T16:53:29.050Z,14.73
2022-10-01T16:56:35.426Z,14.70
2022-10-01T16:59:40.708Z,14.73
2022-10-01T17:02:50.468Z,14.66
2022-10-01T17:05:59.129Z,14.68
2022-10-01T17:09:07.135Z,14.68
2022-10-01T17:12:14.668Z,14.71
2022-10-01T17:15:28.305Z,14.65
2022-10-01T17:18:34.666Z,14.71
2022-10-01T17:21:43.055Z,14.72
2022-10-01T17:24:52.053Z,14.65
2022-10-01T17:28:00.725Z,14.61
2022-10-01T17:31:12.285Z,14.59
2022-10-01T17:34:25.184Z,14.55
2022-10-01T17:37:30.678Z,14.52
2022-10-01T17:40:41.749Z,14.49
2022-10-01T17:43:51.391Z,14.44
2022-10-01T17:46:59.814Z,14.44
2022-10-01T17:50:06.049Z,14.45
2022-10-01T17:53:13.558Z,14.43
2022-10-01T17:56:20.565Z,14.33
2022-10-01T17:59:31.778Z,14.29
2022-10-01T18:02:42.829Z,14.22
2022-10-01T18:05:52.086Z,14.20
2022-10-01T18:08:59.545Z,14.16
2022-10-01T18:12:07.793Z,14.14
2022-10-01T18:15:15.522Z,14.11
2022-10-01T18:21:53.169Z,13.99
2022-10-01T18:25:00.682Z,13.94
2022-10-01T18:28:07.391Z,13.96
2022-10-01T18:31:15.705Z,13.91
2022-10-01T18:34:44.192Z,13.91
2022-10-01T18:37:57.913Z,13.89
2022-10-01T18:41:09.108Z,13.83
2022-10-01T18:44:20.448Z,13.80
2022-10-01T18:48:10.736Z,13.83
2022-10-01T18:51:35.392Z,13.80
2022-10-01T18:55:01.734Z,13.77
2022-10-01T18:58:16.659Z,13.78
2022-10-01T19:01:46.282Z,13.86
2022-10-01T19:05:16.661Z,13.80
2022-10-01T19:08:40.325Z,13.77
2022-10-01T19:11:56.867Z,13.75
2022-10-01T19:15:38.115Z,13.73
2022-10-01T19:19:07.993Z,13.71
2022-10-01T19:22:39.724Z,13.74
2022-10-01T19:25:51.047Z,13.74
2022-10-01T19:29:27.435Z,13.73
2022-10-01T19:32:41.869Z,13.72
2022-10-01T19:35:53.388Z,13.78
2022-10-01T19:39:04.697Z,13.77
2022-10-01T19:42:20.873Z,13.75
2022-10-01T19:45:54.913Z,13.76
2022-10-01T19:49:09.788Z,13.73
2022-10-01T19:52:19.105Z,13.79
2022-10-01T19:55:26.700Z,13.83
2022-10-01T19:58:33.851Z,13.97
2022-10-01T20:01:50.428Z,13.99
2022-10-01T20:05:05.052Z,13.99
2022-10-01T20:08:57.148Z,14.07
2022-10-01T20:12:29.846Z,13.98
2022-10-01T20:15:57.978Z,13.96
2022-10-01T20:19:10.969Z,13.99
2022-10-01T20:22:36.866Z,13.89
2022-10-01T20:25:48.599Z,13.87
2022-10-01T20:29:31.294Z,13.86
2022-10-01T20:33:01.801Z,13.80
2022-10-01T20:36:23.423Z,13.81
2022-10-01T20:39:35.128Z,13.78
2022-10-01T20:42:47.964Z,13.79
2022-10-01T20:45:54.843Z,13.74
2022-10-01T20:49:18.631Z,13.76
2022-10-01T20:52:42.689Z,13.69
2022-10-01T20:56:02.825Z,13.68
2022-10-01T20:59:25.669Z,13.66
2022-10-01T21:02:45.749Z,13.61
2022-10-01T21:05:58.377Z,13.57
2022-10-01T21:09:14.619Z,13.53
2022-10-01T21:12:25.562Z,13.55
2022-10-01T21:15:46.617Z,13.46
2022-10-01T21:18:58.202Z,13.40
2022-10-01T21:22:17.390Z,13.30
2022-10-01T21:25:38.426Z,13.17
2022-10-01T21:29:12.294Z,13.08
2022-10-01T21:32:38.250Z,13.04
2022-10-01T21:35:54.410Z,13.13
2022-10-01T21:39:13.078Z,13.29
2022-10-01T21:42:53.243Z,13.46
2022-10-01T21:46:17.415Z,13.39
2022-10-01T21:49:38.489Z,13.22
2022-10-01T21:52:51.053Z,13.04
2022-10-01T21:56:34.597Z,12.92
2022-10-01T22:00:12.237Z,12.79
2022-10-01T22:03:37.132Z,12.67
2022-10-01T22:07:03.260Z,12.73
2022-10-01T22:10:20.138Z,12.50
2022-10-01T22:13:29.628Z,12.77
2022-10-01T22:16:41.751Z,13.01
2022-10-01T22:19:54.021Z,12.99
2022-10-01T22:23:03.321Z,12.91
2022-10-01T22:26:16.548Z,12.98
2022-10-01T22:29:33.864Z,12.99
2022-10-01T22:33:00.837Z,12.95
2022-10-01T22:36:24.644Z,13.26
2022-10-01T22:39:34.840Z,13.45
2022-10-01T22:42:46.469Z,13.44
2022-10-01T22:46:23.763Z,13.52
2022-10-01T22:49:46.039Z,13.53
2022-10-01T22:53:06.048Z,13.45
2022-10-01T22:56:20.717Z,13.45
2022-10-01T23:00:13.994Z,13.28
2022-10-01T23:03:35.452Z,13.26
2022-10-01T23:07:07.648Z,13.15
2022-10-01T23:10:21.876Z,13.08
2022-10-01T23:14:01.799Z,13.08
2022-10-01T23:17:23.181Z,13.07
2022-10-01T23:20:36.984Z,13.21
2022-10-01T23:23:44.151Z,13.16
2022-10-01T23:27:01.199Z,13.07
2022-10-01T23:30:16.681Z,12.93
2022-10-01T23:33:40.236Z,12.88
2022-10-01T23:37:05.282Z,13.01
2022-10-01T23:40:16.898Z,13.12
2022-10-01T23:43:30.862Z,13.11
2022-10-01T23:46:40.548Z,13.20
2022-10-01T23:49:59.470Z,13.12
2022-10-01T23:53:23.027Z,13.06
2022-10-01T23:56:51.491Z,13.06
